Time;durP1;ratioP1;P1;durP2;ratioP2;P2;SDS_P1;SDS_P2;PMS_P1;PMS_P2;Temp;Humidity;BMP_temperature;BMP_pressure;BME280_temperature;BME280_humidity;BME280_pressure;Samples;Min_cycle;Max_cycle;Signal;HPM_P1;HPM_P2
2021/11/28 00:00:47;;;;;;;16.70;9.10;;;2.10;99.90;;;;;;5107293;28;20024;-47
2021/11/28 00:03:19;;;;;;;15.90;9.07;;;2.00;99.90;;;;;;5108143;28;20127;-45
2021/11/28 00:05:54;;;;;;;14.82;8.43;;;2.00;99.90;;;;;;5108103;28;20016;-45
2021/11/28 00:08:49;;;;;;;17.52;8.35;;;2.00;99.90;;;;;;5108059;28;20027;-45
2021/11/28 00:13:52;;;;;;;15.02;8.65;;;1.90;99.90;;;;;;5107754;28;20136;-45
2021/11/28 00:16:19;;;;;;;15.82;8.63;;;1.90;99.90;;;;;;5106367;28;20023;-47
2021/11/28 00:18:45;;;;;;;18.33;9.52;;;1.90;99.90;;;;;;5108201;28;20027;-46
2021/11/28 00:21:12;;;;;;;16.08;9.68;;;1.80;99.90;;;;;;5106378;28;20075;-44
2021/11/28 00:23:38;;;;;;;13.18;7.90;;;1.80;99.90;;;;;;5107913;28;20258;-44
2021/11/28 00:26:04;;;;;;;15.13;8.43;;;1.80;99.90;;;;;;5106214;28;20597;-45
2021/11/28 00:28:30;;;;;;;16.33;8.30;;;1.80;99.90;;;;;;5099653;28;20107;-45
2021/11/28 00:30:56;;;;;;;18.83;9.65;;;1.80;99.90;;;;;;5108456;28;20157;-45
2021/11/28 00:33:21;;;;;;;20.30;9.40;;;1.70;99.90;;;;;;5111925;28;20500;-45
2021/11/28 00:35:47;;;;;;;15.65;8.88;;;1.70;99.90;;;;;;5111501;28;20023;-45
2021/11/28 00:38:13;;;;;;;14.77;9.02;;;1.70;99.90;;;;;;5112238;28;20436;-46
2021/11/28 00:40:39;;;;;;;16.38;9.75;;;1.60;99.90;;;;;;5111095;27;20030;-45
2021/11/28 00:43:05;;;;;;;19.08;8.57;;;1.60;99.90;;;;;;5111476;28;20032;-45
2021/11/28 00:45:31;;;;;;;12.68;8.15;;;1.60;99.90;;;;;;5111819;28;20027;-45
2021/11/28 00:47:56;;;;;;;13.63;7.80;;;1.60;99.90;;;;;;5110861;28;20031;-46
2021/11/28 00:52:48;;;;;;;15.00;8.63;;;1.50;99.90;;;;;;5112199;28;20099;-45
2021/11/28 00:55:14;;;;;;;17.08;8.93;;;1.50;99.90;;;;;;5111824;28;20036;-45
2021/11/28 00:57:40;;;;;;;14.38;8.60;;;1.50;99.90;;;;;;5103146;28;20030;-45
2021/11/28 01:00:08;;;;;;;15.23;8.63;;;1.50;99.90;;;;;;5092566;28;20239;-48
2021/11/28 01:02:35;;;;;;;17.63;9.32;;;1.40;99.90;;;;;;5090626;28;20085;-46
2021/11/28 01:05:01;;;;;;;15.10;8.82;;;1.40;99.90;;;;;;5091028;28;20167;-45
2021/11/28 01:07:27;;;;;;;14.15;8.85;;;1.40;99.90;;;;;;5089617;28;20032;-47
2021/11/28 01:09:54;;;;;;;16.65;9.00;;;1.40;99.90;;;;;;5090861;28;20024;-45
2021/11/28 01:12:21;;;;;;;14.80;8.93;;;1.40;99.90;;;;;;5090019;28;20397;-46
2021/11/28 01:14:47;;;;;;;16.05;9.18;;;1.40;99.90;;;;;;5090852;28;20020;-45
2021/11/28 01:17:13;;;;;;;17.17;8.65;;;1.40;99.90;;;;;;5090811;28;20447;-46
2021/11/28 01:19:38;;;;;;;14.50;8.60;;;1.30;99.90;;;;;;5090625;28;20565;-48
2021/11/28 01:22:09;;;;;;;21.40;10.18;;;1.30;99.90;;;;;;5089762;28;20016;-46
2021/11/28 01:24:35;;;;;;;21.98;9.10;;;1.20;99.90;;;;;;5090581;28;20111;-46
2021/11/28 01:27:02;;;;;;;20.25;9.43;;;1.20;99.90;;;;;;5083957;28;20017;-46
2021/11/28 01:29:28;;;;;;;16.83;9.45;;;1.20;99.90;;;;;;5101923;28;20059;-46
2021/11/28 01:31:54;;;;;;;15.50;8.35;;;1.20;99.90;;;;;;5110326;28;20066;-46
2021/11/28 01:34:19;;;;;;;14.05;8.45;;;1.20;99.90;;;;;;5110709;28;20026;-45
2021/11/28 01:36:45;;;;;;;14.55;8.60;;;1.20;99.90;;;;;;5110765;28;20023;-44
2021/11/28 01:39:11;;;;;;;16.33;9.80;;;1.10;99.90;;;;;;5110778;28;20024;-46
2021/11/28 01:41:38;;;;;;;24.83;10.18;;;1.20;99.90;;;;;;5109427;28;20689;-45
2021/11/28 01:44:06;;;;;;;19.63;9.70;;;1.20;99.90;;;;;;5110875;28;20097;-45
2021/11/28 01:46:32;;;;;;;19.40;10.57;;;1.20;99.90;;;;;;5110124;28;20054;-45
2021/11/28 01:48:59;;;;;;;18.92;10.65;;;1.10;99.90;;;;;;5110537;28;20043;-46
2021/11/28 01:51:25;;;;;;;21.58;10.93;;;1.10;99.90;;;;;;5109993;28;20080;-45
2021/11/28 01:53:53;;;;;;;17.23;10.30;;;1.10;99.90;;;;;;5110428;28;20020;-45
2021/11/28 01:56:20;;;;;;;15.73;9.25;;;1.10;99.90;;;;;;5107555;28;20095;-45
2021/11/28 01:58:46;;;;;;;21.77;10.07;;;1.00;99.90;;;;;;5098772;28;20023;-47
2021/11/28 02:01:15;;;;;;;20.33;9.68;;;1.00;99.90;;;;;;5088115;28;20030;-45
2021/11/28 02:03:42;;;;;;;24.33;10.02;;;1.00;99.90;;;;;;5089489;28;20138;-45
2021/11/28 02:06:11;;;;;;;22.73;10.43;;;1.00;99.90;;;;;;5090151;28;20409;-47
2021/11/28 02:08:37;;;;;;;23.42;11.40;;;1.00;99.90;;;;;;5089858;28;20020;-45
2021/11/28 02:11:04;;;;;;;18.10;10.13;;;1.00;99.90;;;;;;5087558;28;20236;-45
2021/11/28 02:13:30;;;;;;;19.15;9.73;;;0.90;99.90;;;;;;5089494;28;20472;-45
2021/11/28 02:15:57;;;;;;;19.10;9.90;;;0.90;99.90;;;;;;5090000;28;20024;-46
2021/11/28 02:18:24;;;;;;;16.10;9.73;;;0.90;99.90;;;;;;5089798;28;20035;-46
2021/11/28 02:20:53;;;;;;;16.95;9.98;;;0.90;99.90;;;;;;5087958;28;20024;-44
2021/11/28 02:23:20;;;;;;;22.63;9.90;;;0.90;99.90;;;;;;5088679;28;20114;-45
2021/11/28 02:25:46;;;;;;;20.33;9.98;;;0.90;99.90;;;;;;5088334;28;20024;-44
2021/11/28 02:28:12;;;;;;;22.27;10.93;;;0.90;99.90;;;;;;5089483;28;20028;-46
2021/11/28 02:30:38;;;;;;;19.27;10.20;;;0.90;99.90;;;;;;5102849;28;20080;-45
2021/11/28 02:33:05;;;;;;;20.00;9.70;;;0.90;99.90;;;;;;5109991;28;20076;-45
2021/11/28 02:35:33;;;;;;;23.13;10.48;;;0.90;99.90;;;;;;5109939;28;20027;-45
2021/11/28 02:37:59;;;;;;;18.38;10.00;;;0.90;99.90;;;;;;5108504;28;20437;-44
2021/11/28 02:40:26;;;;;;;16.90;9.65;;;0.90;99.90;;;;;;5109024;28;20048;-44
2021/11/28 02:42:53;;;;;;;18.85;9.80;;;0.80;99.90;;;;;;5108693;28;20035;-45
2021/11/28 02:45:21;;;;;;;20.17;10.68;;;0.90;99.90;;;;;;5109160;28;20026;-45
2021/11/28 02:47:48;;;;;;;19.50;9.45;;;0.90;99.90;;;;;;5108889;28;20173;-45
2021/11/28 02:50:16;;;;;;;17.08;10.20;;;0.90;99.90;;;;;;5107467;28;20046;-45
2021/11/28 02:52:46;;;;;;;15.55;9.18;;;0.90;99.90;;;;;;5108157;28;20185;-45
2021/11/28 02:55:12;;;;;;;21.42;9.27;;;0.80;99.90;;;;;;5109458;28;20023;-45
2021/11/28 02:57:38;;;;;;;17.98;9.18;;;0.80;99.90;;;;;;5102523;28;20046;-46
2021/11/28 03:00:06;;;;;;;18.77;9.50;;;0.90;99.90;;;;;;5100719;28;20488;-45
2021/11/28 03:02:36;;;;;;;18.92;9.48;;;0.80;99.90;;;;;;5088316;28;20115;-45
2021/11/28 03:05:02;;;;;;;16.73;9.73;;;0.80;99.90;;;;;;5088957;28;20060;-45
2021/11/28 03:07:27;;;;;;;18.55;9.68;;;0.80;99.90;;;;;;5088125;28;20398;-44
2021/11/28 03:09:53;;;;;;;18.52;9.55;;;0.80;99.90;;;;;;5088136;28;20042;-46
2021/11/28 03:12:19;;;;;;;15.93;9.25;;;0.80;99.90;;;;;;5087434;28;20120;-45
2021/11/28 03:14:45;;;;;;;17.15;9.13;;;0.70;99.90;;;;;;5070711;28;20058;-47
2021/11/28 03:17:10;;;;;;;16.20;9.32;;;0.80;99.90;;;;;;5088930;28;20026;-46
2021/11/28 03:19:38;;;;;;;16.50;8.45;;;0.80;99.90;;;;;;5087455;28;20032;-45
2021/11/28 03:22:04;;;;;;;19.75;9.30;;;0.80;99.90;;;;;;5087804;28;20416;-46
2021/11/28 03:24:30;;;;;;;22.23;8.70;;;0.80;99.90;;;;;;5088348;28;20028;-48
2021/11/28 03:26:55;;;;;;;19.27;8.10;;;0.80;99.90;;;;;;5083651;28;20043;-45
2021/11/28 03:29:23;;;;;;;19.83;9.20;;;0.80;99.90;;;;;;5096268;28;20031;-44
2021/11/28 03:31:52;;;;;;;17.10;9.35;;;0.80;99.90;;;;;;5088025;28;20032;-45
2021/11/28 03:34:19;;;;;;;12.80;7.82;;;0.80;99.90;;;;;;5088250;28;20032;-45
2021/11/28 03:36:55;;;;;;;16.25;8.55;;;0.80;99.90;;;;;;5087470;28;20119;-45
2021/11/28 03:39:24;;;;;;;19.52;8.23;;;0.80;99.90;;;;;;5088634;28;20486;-44
2021/11/28 03:41:57;;;;;;;14.88;7.82;;;0.80;99.90;;;;;;5086182;28;20501;-45
2021/11/28 03:44:23;;;;;;;18.75;8.50;;;0.80;99.90;;;;;;5086966;28;20669;-46
2021/11/28 03:46:49;;;;;;;30.48;10.70;;;0.80;99.90;;;;;;5088124;28;20058;-45
2021/11/28 03:49:15;;;;;;;19.73;7.28;;;0.80;99.90;;;;;;5085945;28;20062;-45
2021/11/28 03:51:41;;;;;;;14.30;8.27;;;0.80;99.90;;;;;;5085798;28;20032;-46
2021/11/28 03:54:07;;;;;;;16.30;7.70;;;0.80;99.90;;;;;;5087908;28;20035;-45
2021/11/28 03:56:34;;;;;;;16.25;9.25;;;0.80;99.90;;;;;;5087705;28;20024;-45
2021/11/28 03:59:00;;;;;;;15.75;7.65;;;0.80;99.90;;;;;;5095798;28;20389;-45
2021/11/28 04:01:25;;;;;;;15.55;8.00;;;0.80;99.90;;;;;;5107831;28;20023;-48
2021/11/28 04:03:51;;;;;;;17.52;8.32;;;0.70;99.90;;;;;;5108329;28;20043;-45
2021/11/28 04:06:19;;;;;;;16.75;8.90;;;0.70;99.90;;;;;;5108170;28;20394;-48
2021/11/28 04:08:44;;;;;;;19.80;9.00;;;0.70;99.90;;;;;;5108118;28;20027;-45
2021/11/28 04:11:10;;;;;;;16.95;7.88;;;0.70;99.90;;;;;;5107872;28;20032;-46
2021/11/28 04:13:36;;;;;;;15.30;8.65;;;0.70;99.90;;;;;;5107767;28;20027;-45
2021/11/28 04:16:02;;;;;;;19.08;8.52;;;0.70;99.90;;;;;;5107897;28;20016;-45
2021/11/28 04:18:28;;;;;;;19.60;8.23;;;0.70;99.90;;;;;;5108100;28;20015;-45
2021/11/28 04:20:53;;;;;;;14.20;7.78;;;0.60;99.90;;;;;;5106848;28;20093;-48
2021/11/28 04:23:19;;;;;;;15.30;7.43;;;0.60;99.90;;;;;;5108211;28;20055;-46
2021/11/28 04:25:47;;;;;;;12.85;7.25;;;0.60;99.90;;;;;;5108086;28;20055;-45
2021/11/28 04:28:13;;;;;;;16.15;7.38;;;0.60;99.90;;;;;;5098050;28;20024;-45
2021/11/28 04:30:39;;;;;;;16.00;8.45;;;0.60;99.90;;;;;;5100172;28;20026;-45
2021/11/28 04:33:05;;;;;;;16.63;8.73;;;0.60;99.90;;;;;;5097950;28;20030;-45
2021/11/28 04:35:31;;;;;;;11.45;7.15;;;0.60;99.90;;;;;;5108048;28;20011;-45
2021/11/28 04:37:57;;;;;;;16.08;8.63;;;0.60;99.90;;;;;;5107892;28;20107;-46
2021/11/28 04:40:23;;;;;;;18.63;8.13;;;0.60;99.90;;;;;;5107620;28;20085;-44
2021/11/28 04:42:49;;;;;;;20.08;8.07;;;0.60;99.90;;;;;;5108182;28;20540;-46
2021/11/28 04:45:15;;;;;;;14.63;7.20;;;0.50;99.90;;;;;;5107941;28;20115;-47
2021/11/28 04:47:41;;;;;;;21.48;8.40;;;0.50;99.90;;;;;;5107496;28;20337;-45
2021/11/28 04:50:12;;;;;;;23.25;8.10;;;0.50;99.90;;;;;;5107241;28;20072;-45
2021/11/28 04:52:38;;;;;;;18.13;8.02;;;0.50;99.90;;;;;;5107285;28;20376;-47
2021/11/28 04:55:06;;;;;;;20.58;9.65;;;0.40;99.90;;;;;;5107229;28;20028;-48
2021/11/28 04:57:31;;;;;;;18.63;7.72;;;0.40;99.90;;;;;;5106328;28;20085;-46
2021/11/28 04:59:57;;;;;;;15.77;8.20;;;0.50;99.90;;;;;;5106047;28;20031;-45
2021/11/28 05:02:22;;;;;;;15.23;7.03;;;0.50;99.90;;;;;;5097882;28;20023;-44
2021/11/28 05:04:50;;;;;;;16.35;9.10;;;0.50;99.90;;;;;;5107519;28;20415;-44
2021/11/28 05:07:15;;;;;;;14.45;8.15;;;0.50;99.90;;;;;;5107557;28;20019;-45
2021/11/28 05:09:41;;;;;;;15.80;7.75;;;0.40;99.90;;;;;;5107779;28;20603;-44
2021/11/28 05:12:08;;;;;;;20.73;8.13;;;0.40;99.90;;;;;;5108954;28;20451;-45
2021/11/28 05:14:33;;;;;;;14.40;7.78;;;0.40;99.90;;;;;;5110986;28;20036;-45
2021/11/28 05:16:59;;;;;;;14.77;7.50;;;0.40;99.90;;;;;;5110979;28;20028;-45
2021/11/28 05:19:24;;;;;;;15.63;7.75;;;0.50;99.90;;;;;;5111205;28;20107;-45
2021/11/28 05:21:50;;;;;;;11.63;7.10;;;0.50;99.90;;;;;;5109423;28;20207;-45
2021/11/28 05:24:16;;;;;;;13.35;8.35;;;0.50;99.90;;;;;;5109588;28;20031;-45
2021/11/28 05:26:41;;;;;;;22.38;8.98;;;0.50;99.90;;;;;;5107257;28;20020;-45
2021/11/28 05:29:08;;;;;;;21.08;8.90;;;0.50;99.90;;;;;;5101508;28;20504;-45
2021/11/28 05:31:33;;;;;;;22.08;8.27;;;0.50;99.90;;;;;;5110718;28;20027;-46
2021/11/28 05:33:59;;;;;;;16.42;8.73;;;0.50;99.90;;;;;;5098665;28;20182;-45
2021/11/28 05:36:25;;;;;;;16.10;8.80;;;0.60;99.90;;;;;;5090275;28;20031;-45
2021/11/28 05:38:50;;;;;;;20.08;10.27;;;0.60;99.90;;;;;;5090412;28;20482;-44
2021/11/28 05:41:17;;;;;;;27.15;9.05;;;0.60;99.90;;;;;;5089738;28;20016;-45
2021/11/28 05:43:45;;;;;;;26.88;10.30;;;0.60;99.90;;;;;;5090120;28;20031;-45
2021/11/28 05:46:11;;;;;;;18.77;9.63;;;0.60;99.90;;;;;;5089249;28;20067;-45
2021/11/28 05:48:37;;;;;;;17.90;10.15;;;0.70;99.90;;;;;;5090629;28;20055;-44
2021/11/28 05:51:04;;;;;;;19.27;10.00;;;0.70;99.90;;;;;;5089119;28;20051;-45
2021/11/28 05:53:31;;;;;;;24.52;11.52;;;0.60;99.90;;;;;;5090251;28;20016;-45
2021/11/28 05:55:56;;;;;;;21.45;10.32;;;0.60;99.90;;;;;;5090214;28;20024;-46
2021/11/28 05:58:22;;;;;;;27.95;11.45;;;0.60;99.90;;;;;;5092545;28;20016;-46
2021/11/28 06:00:48;;;;;;;17.88;10.27;;;0.50;99.90;;;;;;5106098;28;20510;-45
2021/11/28 06:03:14;;;;;;;25.02;10.60;;;0.50;99.90;;;;;;5105154;28;20030;-46
2021/11/28 06:05:42;;;;;;;22.90;10.65;;;0.60;99.90;;;;;;5100897;28;20331;-45
2021/11/28 06:08:07;;;;;;;26.48;11.13;;;0.50;99.90;;;;;;5096780;28;20288;-45
2021/11/28 06:10:33;;;;;;;22.23;10.38;;;0.50;99.90;;;;;;5096106;28;20064;-46
2021/11/28 06:13:00;;;;;;;26.52;10.90;;;0.50;99.90;;;;;;5095700;28;20031;-47
2021/11/28 06:15:26;;;;;;;25.75;11.40;;;0.50;99.90;;;;;;5099693;28;20119;-45
2021/11/28 06:17:51;;;;;;;40.28;14.05;;;0.50;99.90;;;;;;5094286;28;20103;-45
2021/11/28 06:20:17;;;;;;;29.50;11.10;;;0.50;99.90;;;;;;5097691;28;20073;-45
2021/11/28 06:22:43;;;;;;;18.58;10.60;;;0.50;99.90;;;;;;5096067;28;20039;-45
2021/11/28 06:25:09;;;;;;;25.35;11.02;;;0.50;99.90;;;;;;5088931;28;20024;-44
2021/11/28 06:27:34;;;;;;;19.17;10.55;;;0.50;99.90;;;;;;5086915;28;20047;-45
2021/11/28 06:30:00;;;;;;;20.45;10.30;;;0.50;99.90;;;;;;5091432;28;20024;-46
2021/11/28 06:32:26;;;;;;;18.83;10.05;;;0.50;99.90;;;;;;5088659;28;20016;-45
2021/11/28 06:34:52;;;;;;;20.65;12.02;;;0.50;99.90;;;;;;5089389;28;20016;-46
2021/11/28 06:37:18;;;;;;;22.73;10.82;;;0.40;99.90;;;;;;5091476;28;20085;-45
2021/11/28 06:39:43;;;;;;;28.35;10.05;;;0.40;99.90;;;;;;5086805;28;20053;-46
2021/11/28 06:42:09;;;;;;;22.25;12.02;;;0.40;99.90;;;;;;5088505;28;20024;-45
2021/11/28 06:44:35;;;;;;;23.48;10.95;;;0.40;99.90;;;;;;5089158;28;20149;-45
2021/11/28 06:47:01;;;;;;;22.60;11.98;;;0.40;99.90;;;;;;5091611;28;20031;-45
2021/11/28 06:49:27;;;;;;;23.63;11.30;;;0.50;99.90;;;;;;5109158;28;20024;-45
2021/11/28 06:51:57;;;;;;;20.60;11.68;;;0.50;99.90;;;;;;5108523;28;20553;-45
2021/11/28 06:54:23;;;;;;;17.27;7.97;;;0.50;99.90;;;;;;5107726;28;20554;-47
2021/11/28 06:56:50;;;;;;;29.55;12.70;;;0.50;99.90;;;;;;5101492;28;20030;-45
2021/11/28 06:59:17;;;;;;;21.80;12.23;;;0.50;99.90;;;;;;5099370;28;20481;-45
2021/11/28 07:01:44;;;;;;;23.95;12.25;;;0.50;99.90;;;;;;5108981;28;20031;-45
2021/11/28 07:04:09;;;;;;;21.52;11.40;;;0.50;99.90;;;;;;5108964;28;20028;-45
2021/11/28 07:06:35;;;;;;;23.63;12.32;;;0.50;99.90;;;;;;5108762;28;20042;-44
2021/11/28 07:09:01;;;;;;;24.25;13.40;;;0.50;99.90;;;;;;5109709;28;20201;-44
2021/11/28 07:11:27;;;;;;;29.85;13.15;;;0.50;99.90;;;;;;5108058;28;20028;-44
2021/11/28 07:13:53;;;;;;;22.38;11.73;;;0.40;99.90;;;;;;5108826;28;20088;-45
2021/11/28 07:16:19;;;;;;;29.42;12.55;;;0.40;99.90;;;;;;5108437;28;20496;-45
2021/11/28 07:18:45;;;;;;;29.63;12.50;;;0.40;99.90;;;;;;5108810;28;20015;-44
2021/11/28 07:21:15;;;;;;;22.83;12.73;;;0.40;99.90;;;;;;5108350;28;20024;-44
2021/11/28 07:23:41;;;;;;;27.45;13.05;;;0.30;99.90;;;;;;5108790;28;20501;-44
2021/11/28 07:26:08;;;;;;;22.83;12.20;;;0.40;99.90;;;;;;5108515;28;20038;-46
2021/11/28 07:28:34;;;;;;;25.15;12.95;;;0.40;99.90;;;;;;5098298;28;20420;-44
2021/11/28 07:31:01;;;;;;;25.17;12.57;;;0.50;99.90;;;;;;5106073;28;20055;-45
2021/11/28 07:33:26;;;;;;;26.55;13.18;;;0.50;99.90;;;;;;5108093;28;20067;-45
2021/11/28 07:35:52;;;;;;;28.88;12.52;;;0.60;99.90;;;;;;5107245;28;20066;-45
2021/11/28 07:38:17;;;;;;;26.00;11.95;;;0.70;99.90;;;;;;5108441;28;20012;-45
2021/11/28 07:40:43;;;;;;;23.33;12.10;;;0.70;99.90;;;;;;5107916;28;20031;-45
2021/11/28 07:43:11;;;;;;;18.70;11.10;;;0.70;99.90;;;;;;5107878;28;20429;-46
2021/11/28 07:45:37;;;;;;;34.47;11.95;;;0.80;99.90;;;;;;5108295;28;20016;-45
2021/11/28 07:48:03;;;;;;;27.17;11.88;;;0.90;99.90;;;;;;5089786;28;20034;-45
2021/11/28 07:50:28;;;;;;;24.63;11.30;;;0.90;99.90;;;;;;5087548;28;20266;-46
2021/11/28 07:52:54;;;;;;;22.98;11.65;;;0.90;99.90;;;;;;5087657;28;20085;-47
2021/11/28 07:55:20;;;;;;;21.02;11.30;;;1.00;99.90;;;;;;5094450;28;20036;-44
2021/11/28 07:57:46;;;;;;;22.80;10.75;;;1.10;99.90;;;;;;5104039;28;20036;-45
2021/11/28 08:00:13;;;;;;;20.17;11.15;;;1.20;99.90;;;;;;5092148;28;20100;-45
2021/11/28 08:02:38;;;;;;;20.63;11.35;;;1.30;99.90;;;;;;5102305;28;20026;-45
2021/11/28 08:05:06;;;;;;;21.95;12.07;;;1.40;99.90;;;;;;5088142;28;20486;-45
2021/11/28 08:07:31;;;;;;;19.90;12.02;;;1.40;99.90;;;;;;5088027;28;20044;-47
2021/11/28 08:09:57;;;;;;;20.08;10.95;;;1.50;99.90;;;;;;5088673;28;20043;-45
2021/11/28 08:12:24;;;;;;;20.65;11.25;;;1.50;99.90;;;;;;5085501;28;20024;-45
2021/11/28 08:14:50;;;;;;;22.90;11.45;;;1.70;99.90;;;;;;5088072;28;20093;-44
2021/11/28 08:17:16;;;;;;;21.02;11.48;;;1.70;99.90;;;;;;5087107;28;20047;-45
2021/11/28 08:19:42;;;;;;;23.45;11.23;;;1.80;99.90;;;;;;5087084;28;20020;-45
2021/11/28 08:22:08;;;;;;;21.60;10.55;;;1.70;99.90;;;;;;5086268;28;20016;-45
2021/11/28 08:24:34;;;;;;;30.75;12.77;;;1.90;99.90;;;;;;5086169;28;20516;-45
2021/11/28 08:27:00;;;;;;;19.13;10.82;;;2.00;99.90;;;;;;5084308;28;20052;-45
2021/11/28 08:29:26;;;;;;;18.33;11.23;;;2.00;99.90;;;;;;5098618;28;20055;-46
2021/11/28 08:31:52;;;;;;;18.10;10.80;;;2.10;99.90;;;;;;5091165;28;20035;-46
2021/11/28 08:34:18;;;;;;;24.83;11.95;;;2.10;99.90;;;;;;5087408;28;20267;-45
2021/11/28 08:36:44;;;;;;;27.88;11.77;;;2.10;99.90;;;;;;5087374;28;20501;-45
2021/11/28 08:39:09;;;;;;;17.35;10.93;;;2.10;99.90;;;;;;5086753;28;20036;-45
2021/11/28 08:41:35;;;;;;;20.48;10.75;;;2.20;99.90;;;;;;5086688;28;20410;-45
2021/11/28 08:44:03;;;;;;;22.58;11.23;;;2.20;99.90;;;;;;5085833;28;20032;-45
2021/11/28 08:46:28;;;;;;;16.88;9.55;;;2.20;99.90;;;;;;5090141;28;20478;-46
2021/11/28 08:48:54;;;;;;;18.88;10.25;;;2.20;99.90;;;;;;5091400;28;20028;-45
2021/11/28 08:51:21;;;;;;;19.73;11.23;;;2.20;99.90;;;;;;5090439;28;20021;-49
2021/11/28 08:53:47;;;;;;;20.40;10.52;;;2.20;99.90;;;;;;5091185;28;20036;-46
2021/11/28 08:56:13;;;;;;;18.20;10.38;;;2.30;99.90;;;;;;5091821;28;20020;-45
2021/11/28 08:58:39;;;;;;;19.92;10.38;;;2.30;99.90;;;;;;5095795;28;20023;-46
2021/11/28 09:01:05;;;;;;;18.67;10.63;;;2.40;99.90;;;;;;5094183;28;20024;-44
2021/11/28 09:03:30;;;;;;;21.00;9.55;;;2.40;99.90;;;;;;5103400;28;20124;-45
2021/11/28 09:05:56;;;;;;;25.45;10.18;;;2.50;99.90;;;;;;5111310;28;20400;-46
2021/11/28 09:08:23;;;;;;;19.38;9.85;;;2.60;99.90;;;;;;5110714;28;20027;-44
2021/11/28 09:10:49;;;;;;;20.40;9.68;;;2.70;99.90;;;;;;5101009;28;20020;-46
2021/11/28 09:13:15;;;;;;;17.65;9.70;;;2.90;99.90;;;;;;5088571;28;20036;-46
2021/11/28 09:15:41;;;;;;;16.60;9.65;;;3.10;99.90;;;;;;5087923;28;20024;-45
2021/11/28 09:18:13;;;;;;;17.02;10.20;;;3.20;99.90;;;;;;5090689;28;20027;-45
2021/11/28 09:20:43;;;;;;;18.17;10.32;;;3.40;99.90;;;;;;5068779;28;20524;-45
2021/11/28 09:25:36;;;;;;;18.35;10.52;;;3.40;99.90;;;;;;5082517;28;20406;-44
2021/11/28 09:28:04;;;;;;;15.48;9.80;;;3.30;99.90;;;;;;5095588;28;20019;-45
2021/11/28 09:30:30;;;;;;;19.77;9.25;;;3.30;99.90;;;;;;5087113;28;20514;-44
2021/11/28 09:32:57;;;;;;;18.48;9.50;;;3.20;99.90;;;;;;5082736;28;20032;-45
2021/11/28 09:35:24;;;;;;;20.00;10.23;;;3.00;99.90;;;;;;5086201;28;20020;-45
2021/11/28 09:37:51;;;;;;;22.05;11.00;;;2.80;99.90;;;;;;5083391;28;20134;-45
2021/11/28 09:40:16;;;;;;;23.55;13.52;;;2.70;99.90;;;;;;5086976;28;20059;-45
2021/11/28 09:42:58;;;;;;;20.52;12.57;;;2.70;99.90;;;;;;5090169;28;20052;-45
2021/11/28 09:45:26;;;;;;;19.17;11.65;;;2.60;99.90;;;;;;5090413;28;20024;-45
2021/11/28 09:47:53;;;;;;;24.92;13.13;;;2.70;99.90;;;;;;5090163;28;20047;-45
2021/11/28 09:50:20;;;;;;;18.65;11.70;;;2.60;99.90;;;;;;5089628;28;20020;-47
2021/11/28 09:52:49;;;;;;;24.90;13.13;;;2.60;99.90;;;;;;5090414;28;20024;-48
2021/11/28 09:55:15;;;;;;;26.80;12.68;;;2.50;99.90;;;;;;5090261;28;20020;-45
2021/11/28 09:57:41;;;;;;;20.75;12.15;;;2.50;99.90;;;;;;5093290;28;20050;-46
2021/11/28 10:00:09;;;;;;;26.58;12.70;;;2.30;99.90;;;;;;5102193;28;20027;-47
2021/11/28 10:02:36;;;;;;;20.90;11.75;;;2.40;99.90;;;;;;5110686;28;20080;-45
2021/11/28 10:05:08;;;;;;;28.35;13.73;;;2.50;99.90;;;;;;5108850;28;20019;-45
2021/11/28 10:07:34;;;;;;;25.52;12.88;;;2.50;99.90;;;;;;5110475;28;20019;-45
2021/11/28 10:10:00;;;;;;;29.20;12.68;;;2.60;99.90;;;;;;5110846;28;20046;-45
2021/11/28 10:12:35;;;;;;;24.27;13.48;;;2.70;99.90;;;;;;5108146;28;20118;-46
2021/11/28 10:15:05;;;;;;;19.88;12.07;;;2.80;99.90;;;;;;5110259;28;20152;-45
2021/11/28 10:17:33;;;;;;;21.67;12.75;;;2.90;99.90;;;;;;5110374;28;20549;-45
2021/11/28 10:20:01;;;;;;;22.38;12.45;;;3.10;99.90;;;;;;5109720;28;20655;-45
2021/11/28 10:22:27;;;;;;;25.13;12.32;;;3.20;99.90;;;;;;5109497;28;20160;-46
2021/11/28 10:25:16;;;;;;;19.52;11.27;;;3.20;99.90;;;;;;5109962;28;20027;-45
2021/11/28 10:27:50;;;;;;;21.45;12.23;;;3.30;99.90;;;;;;5102876;28;20016;-45
2021/11/28 10:30:27;;;;;;;27.75;12.73;;;3.40;99.90;;;;;;5091900;28;20020;-45
2021/11/28 10:32:53;;;;;;;20.85;10.95;;;3.50;99.90;;;;;;5066154;28;20562;-45
2021/11/28 10:35:21;;;;;;;23.33;11.20;;;3.50;99.90;;;;;;5099420;28;20073;-47
2021/11/28 10:37:52;;;;;;;24.60;12.50;;;3.50;99.90;;;;;;5095171;28;20023;-46
2021/11/28 10:40:26;;;;;;;25.25;12.82;;;3.60;99.90;;;;;;5095519;28;20103;-47
2021/11/28 10:43:12;;;;;;;25.30;12.93;;;3.70;99.90;;;;;;5087874;28;20032;-46
2021/11/28 10:45:43;;;;;;;23.58;14.02;;;3.80;99.90;;;;;;5085919;28;20037;-48
2021/11/28 10:48:11;;;;;;;26.13;13.85;;;3.90;99.90;;;;;;5081241;28;20055;-45
2021/11/28 10:50:38;;;;;;;21.38;12.27;;;4.00;99.90;;;;;;5084623;28;20103;-45
2021/11/28 10:53:21;;;;;;;20.92;12.45;;;4.00;99.90;;;;;;5088185;28;20596;-44
2021/11/28 10:56:00;;;;;;;24.83;12.25;;;4.20;99.90;;;;;;5087311;28;20401;-45
2021/11/28 10:58:30;;;;;;;22.70;11.43;;;4.10;99.90;;;;;;5086453;28;20028;-48
2021/11/28 11:01:09;;;;;;;20.85;11.63;;;4.10;99.90;;;;;;5090349;28;20259;-45
2021/11/28 11:03:47;;;;;;;22.13;12.88;;;4.20;99.90;;;;;;5086703;28;20038;-47
2021/11/28 11:06:15;;;;;;;21.92;12.38;;;4.20;99.90;;;;;;5087007;28;20020;-45
2021/11/28 11:08:40;;;;;;;26.55;13.15;;;4.20;99.90;;;;;;5087876;28;20047;-46
2021/11/28 11:11:13;;;;;;;22.10;12.88;;;4.20;99.90;;;;;;5088044;28;20063;-45
2021/11/28 11:13:58;;;;;;;27.58;12.77;;;4.20;99.90;;;;;;5088339;28;20031;-44
2021/11/28 11:16:42;;;;;;;25.70;14.43;;;4.10;99.90;;;;;;5087137;28;20035;-45
2021/11/28 11:19:27;;;;;;;26.30;13.77;;;4.10;99.90;;;;;;5088092;28;20032;-46
2021/11/28 11:22:06;;;;;;;21.23;12.57;;;4.30;99.90;;;;;;5087638;28;20330;-46
2021/11/28 11:24:34;;;;;;;25.63;14.07;;;4.40;99.90;;;;;;5088064;28;20059;-45
2021/11/28 11:27:14;;;;;;;28.70;13.00;;;4.40;99.90;;;;;;5088406;28;20051;-45
2021/11/28 11:29:47;;;;;;;23.67;12.68;;;4.50;99.90;;;;;;5093117;28;20020;-45
2021/11/28 11:32:13;;;;;;;24.27;14.43;;;4.60;99.90;;;;;;5087532;28;20085;-45
2021/11/28 11:34:46;;;;;;;22.10;12.15;;;4.60;99.90;;;;;;5086805;28;20170;-45
2021/11/28 11:37:13;;;;;;;23.48;12.75;;;4.60;99.90;;;;;;5088188;28;20027;-45
2021/11/28 11:39:40;;;;;;;28.85;13.18;;;4.70;99.90;;;;;;5088169;28;20024;-44
2021/11/28 11:42:06;;;;;;;19.58;11.68;;;4.60;99.90;;;;;;5087252;28;20020;-45
2021/11/28 11:44:32;;;;;;;20.30;12.90;;;4.60;99.90;;;;;;5087714;28;20078;-45
2021/11/28 11:46:59;;;;;;;22.50;11.65;;;4.60;99.90;;;;;;5088224;28;20466;-45
2021/11/28 11:49:27;;;;;;;20.33;11.20;;;4.50;99.90;;;;;;5088017;28;20111;-45
2021/11/28 11:51:53;;;;;;;23.20;12.05;;;4.50;99.90;;;;;;5087265;28;20565;-45
2021/11/28 11:54:25;;;;;;;26.63;11.90;;;4.50;99.90;;;;;;5087948;28;20107;-46
2021/11/28 11:57:15;;;;;;;22.35;12.45;;;4.40;99.90;;;;;;5086796;28;20077;-45
2021/11/28 11:59:59;;;;;;;23.98;13.07;;;4.40;99.90;;;;;;5090578;28;20028;-45
2021/11/28 12:02:35;;;;;;;24.65;13.05;;;4.30;99.90;;;;;;5085975;28;20537;-45
2021/11/28 12:05:02;;;;;;;29.33;12.13;;;4.30;99.90;;;;;;5084238;28;20481;-45
2021/11/28 12:07:57;;;;;;;24.30;13.00;;;4.30;99.90;;;;;;5085910;28;20028;-46
2021/11/28 12:10:44;;;;;;;24.63;13.35;;;4.30;99.90;;;;;;5085598;28;20401;-45
2021/11/28 12:13:27;;;;;;;21.00;12.10;;;4.30;99.90;;;;;;5087020;28;20024;-45
2021/11/28 12:16:12;;;;;;;25.08;14.25;;;4.40;99.90;;;;;;5087566;28;20035;-45
2021/11/28 12:18:50;;;;;;;29.00;12.70;;;4.40;99.90;;;;;;5087966;28;20481;-46
2021/11/28 12:21:40;;;;;;;26.13;12.93;;;4.40;99.90;;;;;;5086546;28;20112;-44
2021/11/28 12:24:10;;;;;;;29.20;13.88;;;4.40;99.90;;;;;;5087299;28;20115;-46
2021/11/28 12:26:44;;;;;;;24.87;14.87;;;4.50;99.90;;;;;;5086286;28;20279;-45
2021/11/28 12:29:10;;;;;;;24.40;13.95;;;4.50;99.90;;;;;;5098364;28;20787;-46
2021/11/28 12:31:38;;;;;;;23.65;13.80;;;4.50;99.90;;;;;;5107165;28;20032;-48
2021/11/28 12:34:07;;;;;;;22.63;13.00;;;4.50;99.90;;;;;;5107552;28;20031;-47
2021/11/28 12:36:39;;;;;;;22.75;13.18;;;4.60;99.90;;;;;;5107660;28;20050;-45
2021/11/28 12:39:17;;;;;;;28.63;13.38;;;4.70;99.90;;;;;;5107906;28;20038;-45
2021/11/28 12:44:15;;;;;;;23.75;12.73;;;4.70;99.90;;;;;;5089682;28;20529;-45
2021/11/28 12:46:48;;;;;;;24.83;13.33;;;4.70;99.90;;;;;;5083852;28;20028;-45
2021/11/28 12:49:27;;;;;;;26.27;12.93;;;4.70;99.90;;;;;;5086998;28;20420;-45
2021/11/28 12:51:54;;;;;;;22.95;13.10;;;4.70;99.90;;;;;;5082999;28;20048;-45
2021/11/28 12:54:28;;;;;;;38.25;15.48;;;4.70;99.90;;;;;;5085916;28;20046;-45